createdAt,value
2017-08-03T00:02:11.023Z,8.57
2017-08-03T00:04:38.289Z,8.50
2017-08-03T00:07:05.577Z,8.77
2017-08-03T00:09:32.826Z,8.30
2017-08-03T00:12:00.110Z,9.00
2017-08-03T00:14:27.386Z,9.53
2017-08-03T00:16:54.783Z,9.83
2017-08-03T00:19:22.057Z,9.77
2017-08-03T00:21:49.376Z,10.83
2017-08-03T00:24:16.664Z,10.60
2017-08-03T00:26:43.938Z,10.83
2017-08-03T00:29:11.227Z,10.57
2017-08-03T00:31:38.594Z,10.23
2017-08-03T00:34:05.883Z,10.10
2017-08-03T00:36:33.174Z,9.83
2017-08-03T00:39:00.466Z,11.97
2017-08-03T00:41:27.734Z,10.60
2017-08-03T00:43:55.034Z,10.80
2017-08-03T00:46:22.299Z,10.30
2017-08-03T00:48:49.672Z,11.17
2017-08-03T00:51:16.948Z,10.33
2017-08-03T00:53:44.237Z,11.27
2017-08-03T00:56:11.515Z,11.00
2017-08-03T00:58:38.804Z,11.47
2017-08-03T01:01:06.146Z,11.90
2017-08-03T01:03:33.423Z,11.30
2017-08-03T01:06:00.695Z,11.23
2017-08-03T01:08:27.984Z,11.50
2017-08-03T01:10:55.256Z,12.00
2017-08-03T01:13:23.441Z,11.30
2017-08-03T01:15:50.728Z,11.30
2017-08-03T01:18:17.999Z,11.07
2017-08-03T01:20:45.294Z,11.07
2017-08-03T01:23:12.646Z,10.00
2017-08-03T01:25:39.944Z,11.00
2017-08-03T01:28:07.226Z,10.67
2017-08-03T01:30:34.649Z,10.83
2017-08-03T01:33:01.970Z,10.50
2017-08-03T01:35:29.271Z,11.03
2017-08-03T01:37:56.542Z,12.27
2017-08-03T01:40:23.827Z,9.83
2017-08-03T01:42:51.197Z,10.80
2017-08-03T01:45:18.482Z,11.40
2017-08-03T01:47:45.748Z,9.80
2017-08-03T01:50:13.037Z,10.90
2017-08-03T01:52:40.305Z,10.73
2017-08-03T01:55:07.591Z,10.33
2017-08-03T01:57:34.858Z,11.00
2017-08-03T02:00:02.147Z,10.67
2017-08-03T02:02:29.426Z,11.40
2017-08-03T02:04:56.715Z,10.87
2017-08-03T02:07:24.028Z,11.00
2017-08-03T02:09:51.325Z,11.00
2017-08-03T02:12:18.599Z,11.70
2017-08-03T02:14:45.994Z,11.80
2017-08-03T02:17:13.261Z,11.93
2017-08-03T02:19:40.614Z,11.60
2017-08-03T02:22:07.899Z,12.27
2017-08-03T02:24:35.220Z,13.17
2017-08-03T02:27:02.506Z,12.33
2017-08-03T02:29:29.821Z,12.77
2017-08-03T02:31:57.111Z,12.40
2017-08-03T02:34:24.383Z,13.00
2017-08-03T02:36:51.679Z,13.23
2017-08-03T02:39:18.962Z,13.63
2017-08-03T02:41:46.243Z,13.03
2017-08-03T02:44:13.516Z,13.20
2017-08-03T02:46:40.811Z,13.53
2017-08-03T02:49:08.079Z,13.00
2017-08-03T02:51:35.549Z,14.77
2017-08-03T02:54:02.821Z,13.60
2017-08-03T02:56:30.111Z,12.90
2017-08-03T02:58:57.382Z,13.30
2017-08-03T03:01:24.784Z,13.70
2017-08-03T03:03:52.049Z,12.67
2017-08-03T03:06:19.336Z,13.50
2017-08-03T03:08:46.607Z,13.60
2017-08-03T03:11:13.915Z,14.40
2017-08-03T03:13:41.189Z,13.63
2017-08-03T03:16:08.454Z,14.50
2017-08-03T03:18:35.820Z,13.53
2017-08-03T03:21:03.164Z,13.63
2017-08-03T03:23:30.460Z,13.90
2017-08-03T03:25:57.737Z,13.50
2017-08-03T03:28:25.026Z,13.80
2017-08-03T03:30:52.389Z,13.67
2017-08-03T03:33:19.679Z,14.83
2017-08-03T03:35:47.023Z,15.50
2017-08-03T03:38:14.355Z,14.57
2017-08-03T03:40:41.636Z,14.30
2017-08-03T03:43:08.927Z,14.93
2017-08-03T03:45:36.195Z,14.70
2017-08-03T03:48:03.497Z,15.53
2017-08-03T03:50:30.762Z,14.80
2017-08-03T03:52:58.054Z,15.40
2017-08-03T03:55:25.329Z,16.20
2017-08-03T03:57:52.615Z,14.77
2017-08-03T04:00:19.890Z,14.63
2017-08-03T04:02:47.182Z,15.23
2017-08-03T04:05:14.463Z,14.40
2017-08-03T04:07:41.749Z,15.23
2017-08-03T04:10:09.055Z,14.83
2017-08-03T04:12:36.340Z,14.90
2017-08-03T04:15:03.688Z,14.60
2017-08-03T04:17:31.023Z,13.90
2017-08-03T04:19:58.309Z,14.80
2017-08-03T04:22:25.584Z,15.43
2017-08-03T04:24:52.876Z,14.53
2017-08-03T04:27:20.148Z,15.97
2017-08-03T04:29:47.439Z,16.30
2017-08-03T04:32:14.708Z,15.47
2017-08-03T04:34:41.995Z,15.00
2017-08-03T04:37:09.355Z,15.50
2017-08-03T04:39:36.709Z,15.17
2017-08-03T04:44:37.774Z,14.63
2017-08-03T04:47:05.045Z,14.30
2017-08-03T04:49:32.343Z,12.67
2017-08-03T04:51:59.642Z,13.73
2017-08-03T04:54:26.923Z,14.53
2017-08-03T04:56:54.203Z,13.77
2017-08-03T04:59:21.521Z,13.23
2017-08-03T05:01:48.798Z,13.50
2017-08-03T05:04:16.107Z,12.60
2017-08-03T05:06:43.376Z,13.77
2017-08-03T05:09:10.671Z,13.00
2017-08-03T05:11:37.968Z,13.00
2017-08-03T05:14:05.263Z,13.90
2017-08-03T05:16:32.538Z,14.00
2017-08-03T05:18:59.935Z,12.97
2017-08-03T05:21:27.215Z,13.63
2017-08-03T05:23:54.529Z,13.63
2017-08-03T05:26:21.805Z,12.70
2017-08-03T05:28:49.072Z,11.67
2017-08-03T05:31:16.370Z,13.20
2017-08-03T05:33:43.672Z,12.57
2017-08-03T05:36:10.943Z,13.60
2017-08-03T05:38:38.283Z,13.70
2017-08-03T05:41:05.552Z,13.70
2017-08-03T05:43:32.817Z,14.30
2017-08-03T05:46:00.126Z,14.27
2017-08-03T05:48:27.399Z,16.60
2017-08-03T05:50:55.018Z,16.23
2017-08-03T05:53:22.306Z,16.97
2017-08-03T05:55:49.614Z,17.00
2017-08-03T05:58:16.887Z,17.73
2017-08-03T06:00:44.163Z,16.57
2017-08-03T06:03:11.467Z,17.50
2017-08-03T06:05:38.734Z,17.43
2017-08-03T06:08:06.056Z,16.53
2017-08-03T06:10:33.327Z,17.80
2017-08-03T06:13:00.595Z,16.73
2017-08-03T06:15:27.893Z,16.63
2017-08-03T06:17:55.170Z,18.20
2017-08-03T06:20:22.479Z,16.40
2017-08-03T06:22:49.744Z,17.90
2017-08-03T06:25:17.020Z,15.50
2017-08-03T06:27:44.331Z,15.97
2017-08-03T06:30:11.599Z,14.87
2017-08-03T06:32:38.871Z,14.50
2017-08-03T06:35:06.217Z,13.13
2017-08-03T06:37:33.484Z,13.40
2017-08-03T06:40:00.823Z,13.90
2017-08-03T06:42:28.183Z,13.90
2017-08-03T06:44:55.456Z,12.17
2017-08-03T06:47:22.734Z,13.07
2017-08-03T06:49:50.043Z,12.97
2017-08-03T06:52:17.319Z,12.10
2017-08-03T06:54:44.630Z,12.00
2017-08-03T06:57:11.916Z,12.03
2017-08-03T06:59:39.179Z,11.20
2017-08-03T07:02:06.479Z,12.40
2017-08-03T07:04:33.876Z,11.70
2017-08-03T07:07:01.138Z,11.50
2017-08-03T07:09:28.419Z,11.53
2017-08-03T07:11:55.830Z,10.93
2017-08-03T07:14:23.103Z,11.03
2017-08-03T07:16:50.403Z,12.00
2017-08-03T07:19:17.674Z,10.87
2017-08-03T07:21:44.971Z,11.20
2017-08-03T07:24:13.506Z,10.60
2017-08-03T07:26:40.958Z,12.23
2017-08-03T07:29:08.259Z,10.87
2017-08-03T07:31:35.525Z,10.40
2017-08-03T07:34:02.854Z,10.87
2017-08-03T07:36:30.168Z,10.30
2017-08-03T07:38:57.475Z,10.60
2017-08-03T07:41:24.743Z,10.40
2017-08-03T07:43:52.076Z,9.13
2017-08-03T07:46:19.487Z,10.30
2017-08-03T07:48:46.888Z,11.00
2017-08-03T07:51:14.160Z,10.83
2017-08-03T07:53:41.698Z,11.07
2017-08-03T07:56:08.971Z,11.77
2017-08-03T07:58:36.242Z,10.70
2017-08-03T08:01:03.979Z,11.00
2017-08-03T08:03:31.263Z,10.00
2017-08-03T08:05:58.535Z,10.27
2017-08-03T08:08:26.374Z,10.63
2017-08-03T08:10:54.003Z,10.60
2017-08-03T08:13:21.392Z,11.40
2017-08-03T08:15:48.664Z,10.50
2017-08-03T08:18:15.935Z,11.00
2017-08-03T08:20:43.231Z,10.33
2017-08-03T08:23:10.548Z,10.30
2017-08-03T08:25:38.236Z,10.67
2017-08-03T08:28:05.503Z,10.03
2017-08-03T08:30:33.068Z,11.17
2017-08-03T08:33:00.349Z,10.40
2017-08-03T08:35:27.609Z,11.43
2017-08-03T08:37:54.922Z,12.63
2017-08-03T08:40:22.280Z,10.70
2017-08-03T08:42:49.556Z,12.17
2017-08-03T08:45:16.851Z,11.60
2017-08-03T08:47:44.167Z,11.80
2017-08-03T08:50:11.438Z,11.47
2017-08-03T08:52:38.711Z,11.50
2017-08-03T08:55:06.023Z,11.30
2017-08-03T08:57:33.369Z,11.27
2017-08-03T09:00:00.640Z,11.07
2017-08-03T09:02:27.973Z,10.60
2017-08-03T09:04:55.245Z,9.70
2017-08-03T09:07:22.560Z,10.90
2017-08-03T09:09:49.831Z,11.50
2017-08-03T09:12:17.104Z,11.43
2017-08-03T09:14:44.419Z,11.50
2017-08-03T09:17:11.682Z,12.23
2017-08-03T09:19:38.956Z,13.77
2017-08-03T09:22:06.255Z,11.90
2017-08-03T09:24:33.531Z,14.17
2017-08-03T09:27:00.828Z,13.50
2017-08-03T09:29:28.105Z,14.70
2017-08-03T09:31:55.413Z,15.10
2017-08-03T09:34:22.686Z,17.27
2017-08-03T09:36:49.963Z,15.40
2017-08-03T09:39:17.312Z,17.07
2017-08-03T09:41:44.583Z,18.20
2017-08-03T09:44:11.899Z,17.10
2017-08-03T09:46:39.211Z,17.87
2017-08-03T09:49:06.507Z,17.70
2017-08-03T09:51:33.867Z,17.80
2017-08-03T09:54:01.163Z,16.70
2017-08-03T09:56:28.467Z,16.40
2017-08-03T09:58:55.831Z,15.30
2017-08-03T10:01:23.138Z,15.50
2017-08-03T10:03:50.404Z,17.07
2017-08-03T10:06:17.700Z,16.30
2017-08-03T10:08:44.995Z,16.87
2017-08-03T10:11:12.300Z,15.13
2017-08-03T10:13:39.625Z,15.73
2017-08-03T10:16:06.887Z,18.07
2017-08-03T10:18:34.259Z,16.10
2017-08-03T10:21:01.562Z,16.00
2017-08-03T10:23:28.830Z,15.10
2017-08-03T10:25:56.131Z,13.87
2017-08-03T10:28:23.400Z,14.33
2017-08-03T10:30:50.694Z,13.90
2017-08-03T10:33:18.012Z,12.70
2017-08-03T10:35:45.350Z,13.60
2017-08-03T10:38:12.624Z,13.03
2017-08-03T10:40:39.919Z,13.87
2017-08-03T10:43:07.191Z,13.70
2017-08-03T10:45:34.503Z,14.23
2017-08-03T10:48:01.776Z,12.30
2017-08-03T10:50:29.047Z,13.03
2017-08-03T10:52:56.350Z,11.40
2017-08-03T10:55:23.675Z,10.03
2017-08-03T10:57:51.038Z,11.67
2017-08-03T11:00:18.391Z,10.20
2017-08-03T11:02:45.667Z,10.30
2017-08-03T11:05:13.273Z,8.33
2017-08-03T11:07:40.992Z,7.97
2017-08-03T11:12:42.062Z,7.10
2017-08-03T11:15:09.323Z,6.20
2017-08-03T11:17:36.595Z,6.20
2017-08-03T11:20:03.876Z,5.67
2017-08-03T11:22:31.168Z,5.40
2017-08-03T11:24:58.467Z,4.70
2017-08-03T11:27:25.733Z,5.00
2017-08-03T11:29:52.987Z,5.10
2017-08-03T11:32:20.303Z,5.60
2017-08-03T11:34:47.608Z,3.80
2017-08-03T11:37:14.972Z,3.97
2017-08-03T11:39:42.281Z,4.20
2017-08-03T11:42:09.539Z,3.97
2017-08-03T11:44:36.793Z,4.20
2017-08-03T11:47:04.093Z,4.30
2017-08-03T11:49:31.352Z,4.23
2017-08-03T11:51:58.606Z,4.20
2017-08-03T11:54:25.894Z,5.10
2017-08-03T11:56:53.182Z,5.53
2017-08-03T11:59:20.471Z,5.33
2017-08-03T12:01:47.803Z,5.20
2017-08-03T12:04:15.058Z,5.40
2017-08-03T12:06:42.323Z,5.73
2017-08-03T12:09:09.616Z,5.90
2017-08-03T12:11:36.911Z,7.00
2017-08-03T12:14:04.223Z,5.03
2017-08-03T12:16:31.514Z,5.60
2017-08-03T12:18:58.779Z,5.80
2017-08-03T12:21:26.075Z,5.43
2017-08-03T12:23:53.412Z,6.47
2017-08-03T12:26:20.661Z,6.67
2017-08-03T12:28:47.938Z,4.97
2017-08-03T12:31:15.224Z,5.30
2017-08-03T12:33:42.483Z,4.93
2017-08-03T12:36:09.780Z,5.20
2017-08-03T12:38:37.035Z,4.17
2017-08-03T12:41:04.385Z,4.20
2017-08-03T12:43:31.735Z,3.33
2017-08-03T12:45:59.086Z,3.70
2017-08-03T12:48:26.374Z,3.67
2017-08-03T12:50:53.642Z,3.27
2017-08-03T12:53:20.956Z,3.20
2017-08-03T12:55:48.218Z,2.90
2017-08-03T12:58:15.490Z,2.87
2017-08-03T13:00:42.784Z,2.67
2017-08-03T13:03:10.043Z,2.63
2017-08-03T13:05:37.303Z,2.70
2017-08-03T13:08:04.582Z,2.40
2017-08-03T13:10:31.883Z,2.60
2017-08-03T13:12:59.184Z,2.57
2017-08-03T13:15:26.434Z,2.30
2017-08-03T13:17:53.785Z,2.80
2017-08-03T13:20:21.045Z,2.33
2017-08-03T13:22:48.333Z,2.50
2017-08-03T13:25:15.595Z,2.27
2017-08-03T13:27:42.847Z,2.00
2017-08-03T13:30:10.190Z,2.30
2017-08-03T13:32:37.423Z,3.90
2017-08-03T13:35:04.708Z,2.47
2017-08-03T13:37:31.973Z,2.37
2017-08-03T13:39:59.260Z,2.50
2017-08-03T13:42:26.516Z,2.30
2017-08-03T13:44:53.811Z,2.23
2017-08-03T13:47:21.072Z,2.50
2017-08-03T13:49:48.385Z,2.43
2017-08-03T13:52:15.755Z,2.50
2017-08-03T13:54:43.102Z,2.23
2017-08-03T13:57:10.363Z,2.77
2017-08-03T13:59:37.663Z,3.00
2017-08-03T14:02:04.931Z,3.03
2017-08-03T14:04:32.224Z,1.90
2017-08-03T14:06:59.532Z,2.03
2017-08-03T14:09:26.791Z,1.90
2017-08-03T14:11:54.043Z,1.90
2017-08-03T14:14:21.331Z,1.90
2017-08-03T14:16:48.586Z,1.90
2017-08-03T14:19:15.942Z,1.87
2017-08-03T14:21:43.211Z,1.80
2017-08-03T14:24:10.555Z,1.60
2017-08-03T14:26:37.915Z,2.20
2017-08-03T14:29:05.272Z,2.03
2017-08-03T14:31:32.565Z,1.90
2017-08-03T14:33:59.874Z,2.20
2017-08-03T14:36:27.162Z,1.87
2017-08-03T14:38:54.422Z,2.20
2017-08-03T14:41:21.726Z,2.03
2017-08-03T14:43:48.994Z,1.97
2017-08-03T14:46:16.259Z,1.80
2017-08-03T14:48:43.605Z,1.83
2017-08-03T14:51:10.858Z,1.90
2017-08-03T14:53:38.124Z,1.70
2017-08-03T14:56:05.423Z,1.87
2017-08-03T14:58:32.719Z,3.00
2017-08-03T15:01:00.015Z,2.00
2017-08-03T15:03:27.271Z,1.90
2017-08-03T15:05:54.575Z,1.73
2017-08-03T15:08:21.864Z,2.30
2017-08-03T15:10:49.150Z,1.83
2017-08-03T15:13:16.434Z,2.20
2017-08-03T15:15:43.722Z,2.17
2017-08-03T15:18:10.979Z,2.07
2017-08-03T15:20:38.273Z,1.97
2017-08-03T15:23:05.577Z,2.47
2017-08-03T15:25:32.837Z,1.90
2017-08-03T15:28:00.099Z,2.23
2017-08-03T15:30:27.392Z,1.93
2017-08-03T15:32:54.648Z,2.60
2017-08-03T15:35:21.951Z,2.30
2017-08-03T15:37:49.211Z,2.30
2017-08-03T15:40:16.500Z,2.40
2017-08-03T15:42:43.795Z,2.37
2017-08-03T15:45:11.263Z,2.37
2017-08-03T15:47:38.529Z,2.30
2017-08-03T15:50:05.799Z,2.40
2017-08-03T15:52:33.095Z,2.73
2017-08-03T15:55:00.360Z,2.50
2017-08-03T15:57:27.659Z,2.40
2017-08-03T15:59:54.939Z,2.60
2017-08-03T16:02:22.202Z,2.47
2017-08-03T16:04:49.512Z,2.43
2017-08-03T16:07:16.782Z,2.70
2017-08-03T16:09:44.045Z,1.80
2017-08-03T16:12:11.343Z,2.20
2017-08-03T16:14:38.655Z,1.87
2017-08-03T16:17:05.951Z,1.70
2017-08-03T16:19:33.251Z,2.10
2017-08-03T16:22:00.527Z,2.00
2017-08-03T16:24:27.789Z,1.90
2017-08-03T16:26:55.082Z,1.60
2017-08-03T16:29:22.348Z,1.77
2017-08-03T16:31:49.638Z,1.43
2017-08-03T16:34:16.908Z,1.63
2017-08-03T16:36:44.205Z,1.57
2017-08-03T16:39:11.465Z,2.40
2017-08-03T16:41:38.732Z,1.77
2017-08-03T16:44:06.026Z,1.57
2017-08-03T16:46:33.338Z,2.27
2017-08-03T16:49:00.592Z,3.70
2017-08-03T16:51:27.859Z,1.67
2017-08-03T16:53:55.171Z,1.73
2017-08-03T16:56:22.445Z,1.60
2017-08-03T16:58:49.734Z,1.80
2017-08-03T17:01:16.992Z,1.50
2017-08-03T17:03:44.296Z,2.20
2017-08-03T17:06:11.582Z,1.60
2017-08-03T17:08:38.867Z,1.90
2017-08-03T17:11:06.159Z,1.77
2017-08-03T17:13:33.438Z,1.90
2017-08-03T17:16:00.738Z,1.33
2017-08-03T17:18:27.999Z,1.50
2017-08-03T17:20:55.263Z,1.70
2017-08-03T17:23:22.583Z,1.57
2017-08-03T17:25:49.830Z,2.00
2017-08-03T17:28:17.096Z,2.13
2017-08-03T17:30:44.384Z,2.80
2017-08-03T17:33:11.674Z,2.43
2017-08-03T17:35:39.258Z,1.67
2017-08-03T17:38:06.524Z,1.90
2017-08-03T17:40:33.796Z,1.97
2017-08-03T17:43:01.088Z,2.30
2017-08-03T17:45:28.372Z,1.87
2017-08-03T17:47:55.662Z,1.80
2017-08-03T17:50:22.998Z,1.67
2017-08-03T17:52:50.260Z,1.73
2017-08-03T17:55:17.537Z,1.53
2017-08-03T17:57:44.835Z,1.73
2017-08-03T18:00:12.107Z,1.70
2017-08-03T18:02:39.371Z,1.77
2017-08-03T18:05:06.667Z,1.63
2017-08-03T18:07:33.939Z,1.60
2017-08-03T18:10:01.253Z,1.57
2017-08-03T18:12:28.505Z,1.53
2017-08-03T18:14:55.759Z,1.60
2017-08-03T18:17:23.059Z,1.67
2017-08-03T18:19:50.363Z,2.00
2017-08-03T18:22:17.630Z,1.60
2017-08-03T18:24:44.891Z,1.53
2017-08-03T18:27:12.186Z,1.40
2017-08-03T18:29:39.457Z,1.70
2017-08-03T18:32:06.746Z,2.70
2017-08-03T18:34:34.020Z,6.27
2017-08-03T18:37:01.310Z,2.10
2017-08-03T18:39:28.626Z,2.10
2017-08-03T18:41:55.886Z,1.70
2017-08-03T18:44:23.180Z,2.00
2017-08-03T18:46:50.476Z,1.90
2017-08-03T18:49:17.738Z,2.10
2017-08-03T18:51:45.048Z,1.90
2017-08-03T18:54:12.311Z,1.90
2017-08-03T18:56:39.574Z,1.90
2017-08-03T18:59:06.871Z,2.10
2017-08-03T19:01:34.134Z,1.57
2017-08-03T19:04:01.431Z,1.87
2017-08-03T19:06:28.745Z,1.80
2017-08-03T19:08:56.003Z,1.93
2017-08-03T19:11:23.290Z,2.37
2017-08-03T19:13:50.566Z,1.80
2017-08-03T19:16:17.874Z,1.60
2017-08-03T19:18:45.130Z,1.70
2017-08-03T19:21:12.428Z,1.97
2017-08-03T19:23:39.744Z,1.60
2017-08-03T19:26:07.029Z,1.83
2017-08-03T19:28:34.327Z,2.00
2017-08-03T19:31:01.622Z,1.80
2017-08-03T19:33:28.905Z,1.93
2017-08-03T19:35:56.245Z,1.80
2017-08-03T19:38:23.490Z,1.60
2017-08-03T19:40:50.760Z,1.67
2017-08-03T19:43:18.075Z,1.40
2017-08-03T19:45:45.334Z,1.60
2017-08-03T19:48:12.613Z,1.80
2017-08-03T19:50:39.899Z,2.07
2017-08-03T19:53:07.200Z,1.80
2017-08-03T19:55:34.481Z,1.60
2017-08-03T19:58:01.781Z,1.60
2017-08-03T20:00:29.043Z,1.73
2017-08-03T20:02:56.342Z,1.60
2017-08-03T20:05:29.503Z,1.50
2017-08-03T20:07:56.810Z,1.53
2017-08-03T20:10:24.103Z,2.10
2017-08-03T20:12:51.395Z,1.60
2017-08-03T20:15:18.662Z,1.80
2017-08-03T20:17:45.955Z,1.90
2017-08-03T20:20:13.422Z,1.83
2017-08-03T20:22:40.830Z,1.90
2017-08-03T20:25:08.237Z,1.83
2017-08-03T20:27:35.723Z,1.60
2017-08-03T20:30:03.107Z,1.80
2017-08-03T20:32:30.986Z,1.80
2017-08-03T20:34:58.415Z,2.07
2017-08-03T20:37:25.813Z,1.80
2017-08-03T20:39:53.187Z,1.67
2017-08-03T20:42:20.593Z,1.70
2017-08-03T20:44:47.964Z,1.70
2017-08-03T20:47:15.328Z,1.90
2017-08-03T20:49:42.635Z,1.60
2017-08-03T20:52:09.907Z,1.50
2017-08-03T20:54:37.380Z,1.87
2017-08-03T20:57:04.838Z,2.00
2017-08-03T20:59:32.239Z,1.70
2017-08-03T21:01:59.626Z,2.10
2017-08-03T21:04:27.052Z,2.03
2017-08-03T21:06:54.529Z,2.00
2017-08-03T21:09:21.988Z,1.70
2017-08-03T21:11:49.274Z,2.10
2017-08-03T21:14:16.545Z,2.30
2017-08-03T21:16:43.831Z,1.87
2017-08-03T21:19:11.151Z,1.87
2017-08-03T21:21:38.423Z,2.03
2017-08-03T21:24:05.684Z,1.73
2017-08-03T21:26:32.975Z,1.57
2017-08-03T21:29:00.276Z,2.00
2017-08-03T21:31:27.569Z,2.30
2017-08-03T21:33:54.871Z,2.00
2017-08-03T21:36:22.139Z,1.60
2017-08-03T21:38:49.402Z,1.90
2017-08-03T21:41:16.700Z,2.40
2017-08-03T21:43:43.973Z,2.03
2017-08-03T21:46:11.322Z,1.80
2017-08-03T21:48:38.640Z,1.77
2017-08-03T21:51:05.907Z,1.70
2017-08-03T21:53:33.203Z,1.80
2017-08-03T21:56:00.475Z,1.87
2017-08-03T21:58:27.746Z,2.00
2017-08-03T22:01:01.019Z,2.00
2017-08-03T22:03:28.334Z,2.00
2017-08-03T22:05:55.604Z,2.03
2017-08-03T22:08:22.854Z,1.93
2017-08-03T22:10:50.159Z,1.90
2017-08-03T22:13:17.436Z,1.70
2017-08-03T22:15:44.707Z,1.90
2017-08-03T22:18:12.004Z,1.60
2017-08-03T22:20:39.307Z,1.90
2017-08-03T22:23:06.579Z,1.80
2017-08-03T22:25:33.876Z,1.83
2017-08-03T22:28:01.143Z,1.67
2017-08-03T22:30:28.438Z,1.60
2017-08-03T22:32:55.735Z,1.70
2017-08-03T22:35:23.020Z,1.53
2017-08-03T22:37:50.371Z,1.70
2017-08-03T22:40:17.622Z,2.00
2017-08-03T22:42:44.879Z,2.23
2017-08-03T22:45:12.191Z,1.63
2017-08-03T22:47:39.466Z,2.20
2017-08-03T22:50:06.730Z,1.70
2017-08-03T22:52:34.024Z,1.90
2017-08-03T22:55:01.328Z,1.60
2017-08-03T22:57:28.582Z,1.93
2017-08-03T22:59:55.871Z,1.87
2017-08-03T23:02:23.138Z,1.97
2017-08-03T23:04:50.458Z,1.80
2017-08-03T23:07:17.751Z,1.90
2017-08-03T23:09:45.020Z,1.50
2017-08-03T23:12:12.355Z,2.13
2017-08-03T23:14:39.632Z,1.80
2017-08-03T23:17:06.899Z,2.00
2017-08-03T23:19:34.190Z,1.70
2017-08-03T23:22:01.461Z,1.77
2017-08-03T23:24:28.760Z,1.80
2017-08-03T23:26:56.036Z,2.17
2017-08-03T23:29:23.309Z,2.00
2017-08-03T23:31:50.595Z,2.13
2017-08-03T23:34:17.868Z,1.70
2017-08-03T23:36:45.180Z,2.17
2017-08-03T23:39:12.439Z,1.80
2017-08-03T23:41:39.722Z,1.97
2017-08-03T23:44:07.040Z,2.17
2017-08-03T23:46:34.302Z,2.23
2017-08-03T23:49:01.600Z,1.80
2017-08-03T23:51:28.868Z,2.33
2017-08-03T23:53:56.140Z,2.20
2017-08-03T23:56:23.444Z,2.03
2017-08-03T23:58:50.718Z,1.87
